createdAt,value
2018-04-16T00:00:28.432Z,13.6
2018-04-16T00:01:18.748Z,13.6
2018-04-16T00:02:08.811Z,13.6
2018-04-16T00:02:58.893Z,13.6
2018-04-16T00:03:48.935Z,13.6
2018-04-16T00:04:39.021Z,13.6
2018-04-16T00:05:28.533Z,13.6
2018-04-16T00:06:19.125Z,13.5
2018-04-16T00:07:08.916Z,13.5
2018-04-16T00:07:59.245Z,13.5
2018-04-16T00:08:49.330Z,13.5
2018-04-16T00:09:39.125Z,13.5
2018-04-16T00:10:29.218Z,13.5
2018-04-16T00:11:19.235Z,13.4
2018-04-16T00:12:09.285Z,13.4
2018-04-16T00:12:59.358Z,13.4
2018-04-16T00:13:49.424Z,13.4
2018-04-16T00:14:39.782Z,13.4
2018-04-16T00:15:29.899Z,13.4
2018-04-16T00:16:19.639Z,13.4
2018-04-16T00:17:09.681Z,13.4
2018-04-16T00:18:00.026Z,13.4
2018-04-16T00:18:49.829Z,13.4
2018-04-16T00:19:39.872Z,13.4
2018-04-16T00:20:29.948Z,13.4
2018-04-16T00:21:20.296Z,13.4
2018-04-16T00:22:10.056Z,13.4
2018-04-16T00:23:00.412Z,13.4
2018-04-16T00:23:50.199Z,13.4
2018-04-16T00:24:40.531Z,13.4
2018-04-16T00:25:30.600Z,13.4
2018-04-16T00:26:20.676Z,13.3
2018-04-16T00:27:10.744Z,13.3
2018-04-16T00:28:00.784Z,13.4
2018-04-16T00:28:50.566Z,13.3
2018-04-16T00:29:40.644Z,13.3
2018-04-16T00:30:30.705Z,13.3
2018-04-16T00:31:21.046Z,13.3
2018-04-16T00:32:10.528Z,13.3
2018-04-16T00:33:00.595Z,13.3
2018-04-16T00:33:51.245Z,13.3
2018-04-16T00:34:41.300Z,13.3
2018-04-16T00:35:30.804Z,13.3
2018-04-16T00:36:21.425Z,13.3
2018-04-16T00:37:11.195Z,13.3
2018-04-16T00:38:01.559Z,13.3
2018-04-16T00:38:51.320Z,13.3
2018-04-16T00:39:41.602Z,13.3
2018-04-16T00:40:31.735Z,13.3
2018-04-16T00:41:21.812Z,13.3
2018-04-16T00:42:11.869Z,13.2
2018-04-16T00:43:01.652Z,13.2
2018-04-16T00:43:52.007Z,13.2
2018-04-16T00:44:42.099Z,13.2
2018-04-16T00:45:32.134Z,13.2
2018-04-16T00:46:21.917Z,13.2
2018-04-16T00:47:12.265Z,13.1
2018-04-16T00:48:02.049Z,13.2
2018-04-16T00:48:52.376Z,13.1
2018-04-16T00:49:41.888Z,13.1
2018-04-16T00:50:32.230Z,13.1
2018-04-16T00:51:22.293Z,13.1
2018-04-16T00:52:12.623Z,13.1
2018-04-16T00:53:01.840Z,13.1
2018-04-16T00:53:52.787Z,13.1
2018-04-16T00:54:42.261Z,13.1
2018-04-16T00:55:32.336Z,13.1
2018-04-16T00:56:22.945Z,13.1
2018-04-16T00:57:12.758Z,13.1
2018-04-16T00:58:02.794Z,13.1
2018-04-16T00:58:52.593Z,13
2018-04-16T00:59:43.198Z,13
2018-04-16T01:00:32.699Z,13
2018-04-16T01:01:23.053Z,13
2018-04-16T01:02:13.400Z,13
2018-04-16T01:03:02.895Z,13
2018-04-16T01:03:53.236Z,13
2018-04-16T01:04:43.571Z,12.9
2018-04-16T01:05:33.666Z,12.9
2018-04-16T01:06:23.425Z,12.9
2018-04-16T01:07:13.498Z,12.9
2018-04-16T01:08:03.569Z,12.9
2018-04-16T01:08:53.355Z,12.9
2018-04-16T01:09:43.964Z,12.9
2018-04-16T01:10:33.762Z,12.9
2018-04-16T01:11:24.089Z,12.9
2018-04-16T01:12:14.145Z,12.9
2018-04-16T01:13:03.668Z,12.9
2018-04-16T01:13:54.298Z,12.9
2018-04-16T01:14:44.066Z,12.8
2018-04-16T01:15:34.126Z,12.9
2018-04-16T01:16:24.196Z,12.9
2018-04-16T01:17:14.537Z,12.8
2018-04-16T01:18:04.627Z,12.8
2018-04-16T01:18:54.679Z,12.8
2018-04-16T01:19:44.436Z,12.8
2018-04-16T01:20:34.776Z,12.8
2018-04-16T01:21:24.300Z,12.8
2018-04-16T01:22:14.924Z,12.8
2018-04-16T01:23:04.984Z,12.8
2018-04-16T01:23:55.051Z,12.8
2018-04-16T01:24:45.102Z,12.8
2018-04-16T01:25:34.625Z,12.8
2018-04-16T01:26:25.229Z,12.8
2018-04-16T01:27:15.031Z,12.8
2018-04-16T01:28:05.355Z,12.8
2018-04-16T01:28:55.436Z,12.8
2018-04-16T01:29:45.483Z,12.8
2018-04-16T01:30:35.577Z,12.7
2018-04-16T01:31:25.325Z,12.7
2018-04-16T01:32:15.409Z,12.7
2018-04-16T01:33:05.196Z,12.7
2018-04-16T01:33:55.537Z,12.7
2018-04-16T01:34:45.025Z,12.7
2018-04-16T01:35:35.677Z,12.6
2018-04-16T01:36:25.991Z,12.6
2018-04-16T01:37:15.514Z,12.6
2018-04-16T01:38:06.144Z,12.6
2018-04-16T01:38:56.196Z,12.6
2018-04-16T01:39:45.712Z,12.6
2018-04-16T01:40:36.035Z,12.6
2018-04-16T01:41:26.397Z,12.6
2018-04-16T01:42:16.174Z,12.6
2018-04-16T01:43:06.517Z,12.6
2018-04-16T01:43:56.560Z,12.6
2018-04-16T01:44:46.636Z,12.6
2018-04-16T01:45:36.424Z,12.6
2018-04-16T01:46:26.763Z,12.6
2018-04-16T01:47:16.262Z,12.6
2018-04-16T01:48:06.609Z,12.6
2018-04-16T01:48:56.672Z,12.5
2018-04-16T01:49:47.014Z,12.5
2018-04-16T01:50:37.070Z,12.5
2018-04-16T01:51:27.125Z,12.5
2018-04-16T01:52:17.203Z,12.5
2018-04-16T01:53:07.279Z,12.6
2018-04-16T01:53:57.334Z,12.5
2018-04-16T01:54:47.389Z,12.5
2018-04-16T01:55:37.449Z,12.5
2018-04-16T01:56:27.289Z,12.5
2018-04-16T01:57:17.324Z,12.5
2018-04-16T01:58:07.652Z,12.5
2018-04-16T01:58:57.702Z,12.5
2018-04-16T01:59:47.793Z,12.4
2018-04-16T02:00:37.553Z,12.4
2018-04-16T02:01:27.905Z,12.4
2018-04-16T02:02:17.962Z,12.4
2018-04-16T02:03:08.043Z,12.4
2018-04-16T02:03:58.099Z,12.4
2018-04-16T02:04:48.162Z,12.4
2018-04-16T02:05:38.207Z,12.4
2018-04-16T02:06:28.034Z,12.4
2018-04-16T02:07:18.082Z,12.4
2018-04-16T02:08:08.407Z,12.4
2018-04-16T02:08:58.477Z,12.4
2018-04-16T02:09:48.264Z,12.4
2018-04-16T02:10:38.322Z,12.4
2018-04-16T02:11:28.753Z,12.4
2018-04-16T02:12:18.748Z,12.4
2018-04-16T02:13:08.519Z,12.4
2018-04-16T02:13:58.876Z,12.4
2018-04-16T02:14:48.919Z,12.4
2018-04-16T02:15:38.978Z,12.4
2018-04-16T02:16:28.763Z,12.4
2018-04-16T02:17:19.093Z,12.4
2018-04-16T02:18:08.610Z,12.4
2018-04-16T02:18:58.955Z,12.4
2018-04-16T02:19:49.295Z,12.3
2018-04-16T02:20:39.368Z,12.3
2018-04-16T02:21:29.155Z,12.3
2018-04-16T02:22:19.490Z,12.3
2018-04-16T02:23:09.562Z,12.3
2018-04-16T02:23:59.619Z,12.3
2018-04-16T02:24:49.698Z,12.3
2018-04-16T02:25:39.760Z,12.3
2018-04-16T02:26:29.805Z,12.3
2018-04-16T02:27:19.877Z,12.3
2018-04-16T02:28:09.659Z,12.3
2018-04-16T02:29:00.002Z,12.3
2018-04-16T02:29:49.804Z,12.3
2018-04-16T02:30:40.144Z,12.3
2018-04-16T02:31:29.634Z,12.3
2018-04-16T02:32:19.967Z,12.2
2018-04-16T02:33:10.327Z,12.2
2018-04-16T02:34:00.389Z,12.2
2018-04-16T02:34:50.449Z,12.2
2018-04-16T02:35:40.249Z,12.2
2018-04-16T02:36:30.280Z,12.2
2018-04-16T02:37:20.674Z,12.2
2018-04-16T02:38:10.417Z,12.2
2018-04-16T02:39:00.751Z,12.1
2018-04-16T02:39:50.554Z,12.2
2018-04-16T02:40:40.336Z,12.2
2018-04-16T02:41:30.981Z,12.1
2018-04-16T02:42:21.064Z,12.1
2018-04-16T02:43:11.090Z,12.1
2018-04-16T02:44:01.179Z,12.1
2018-04-16T02:44:51.208Z,12.1
2018-04-16T02:45:40.988Z,12.1
2018-04-16T02:46:31.349Z,12.1
2018-04-16T02:47:20.819Z,12.1
2018-04-16T02:48:11.199Z,12.1
2018-04-16T02:49:01.566Z,12.1
2018-04-16T02:49:51.578Z,12.1
2018-04-16T02:50:41.659Z,12
2018-04-16T02:51:31.440Z,12
2018-04-16T02:52:21.784Z,12
2018-04-16T02:53:11.860Z,12
2018-04-16T02:54:01.640Z,11.9
2018-04-16T02:54:51.979Z,12
2018-04-16T02:55:42.043Z,12
2018-04-16T02:56:31.813Z,11.9
2018-04-16T02:57:22.171Z,11.9
2018-04-16T02:58:12.225Z,11.9
2018-04-16T02:59:02.313Z,11.9
2018-04-16T02:59:52.350Z,11.9
2018-04-16T03:00:42.128Z,11.9
2018-04-16T03:01:32.484Z,11.9
2018-04-16T03:02:22.541Z,11.9
2018-04-16T03:03:12.343Z,11.8
2018-04-16T03:04:02.732Z,11.8
2018-04-16T03:04:52.175Z,11.8
2018-04-16T03:05:42.802Z,11.8
2018-04-16T03:06:32.567Z,11.8
2018-04-16T03:07:22.926Z,11.8
2018-04-16T03:08:12.981Z,11.8
2018-04-16T03:09:02.799Z,11.8
2018-04-16T03:09:53.108Z,11.7
2018-04-16T03:10:42.887Z,11.7
2018-04-16T03:11:33.249Z,11.7
2018-04-16T03:12:23.324Z,11.6
2018-04-16T03:13:13.096Z,11.6
2018-04-16T03:14:03.144Z,11.6
2018-04-16T03:14:53.490Z,11.6
2018-04-16T03:15:43.000Z,11.6
2018-04-16T03:16:33.624Z,11.6
2018-04-16T03:17:22.837Z,11.6
2018-04-16T03:18:13.753Z,11.6
2018-04-16T03:19:03.856Z,11.6
2018-04-16T03:19:53.882Z,11.6
2018-04-16T03:20:43.921Z,11.5
2018-04-16T03:21:33.738Z,11.5
2018-04-16T03:22:24.071Z,11.5
2018-04-16T03:23:13.907Z,11.4
2018-04-16T03:24:04.178Z,11.4
2018-04-16T03:24:54.231Z,11.4
2018-04-16T03:25:44.533Z,11.4
2018-04-16T03:26:33.536Z,11.4
2018-04-16T03:27:24.175Z,11.4
2018-04-16T03:28:14.225Z,11.4
2018-04-16T03:29:04.009Z,11.4
2018-04-16T03:29:54.634Z,11.4
2018-04-16T03:30:44.714Z,11.3
2018-04-16T03:31:34.772Z,11.3
2018-04-16T03:32:24.843Z,11.3
2018-04-16T03:33:14.893Z,11.3
2018-04-16T03:34:04.687Z,11.3
2018-04-16T03:34:54.736Z,11.3
2018-04-16T03:35:45.096Z,11.3
2018-04-16T03:36:35.159Z,11.3
2018-04-16T03:37:25.208Z,11.3
2018-04-16T03:38:15.276Z,11.2
2018-04-16T03:39:05.386Z,11.2
2018-04-16T03:39:55.119Z,11.2
2018-04-16T03:40:45.456Z,11.1
2018-04-16T03:41:35.242Z,11.1
2018-04-16T03:42:25.586Z,11.1
2018-04-16T03:43:15.051Z,11.1
2018-04-16T03:44:05.721Z,11.1
2018-04-16T03:44:55.798Z,11.1
2018-04-16T03:45:45.660Z,11.1
2018-04-16T03:46:35.889Z,11.1
2018-04-16T03:47:25.721Z,11
2018-04-16T03:48:15.475Z,11
2018-04-16T03:49:05.842Z,11
2018-04-16T03:49:56.185Z,10.9
2018-04-16T03:50:46.213Z,10.9
2018-04-16T03:51:36.280Z,10.9
2018-04-16T03:52:26.362Z,10.9
2018-04-16T03:53:16.397Z,10.9
2018-04-16T03:54:06.492Z,10.9
2018-04-16T03:54:56.554Z,10.9
2018-04-16T03:55:46.036Z,10.9
2018-04-16T03:56:36.405Z,10.9
2018-04-16T03:57:26.710Z,10.9
2018-04-16T03:58:16.527Z,10.8
2018-04-16T03:59:06.869Z,10.8
2018-04-16T03:59:56.921Z,10.8
2018-04-16T04:00:46.976Z,10.8
2018-04-16T04:01:36.781Z,10.8
2018-04-16T04:02:27.161Z,10.8
2018-04-16T04:03:17.181Z,10.8
2018-04-16T04:04:07.262Z,10.8
2018-04-16T04:04:57.009Z,10.8
2018-04-16T04:05:47.349Z,10.8
2018-04-16T04:06:37.424Z,10.8
2018-04-16T04:07:27.486Z,10.8
2018-04-16T04:08:17.273Z,10.7
2018-04-16T04:09:07.408Z,10.7
2018-04-16T04:09:57.671Z,10.7
2018-04-16T04:10:47.456Z,10.6
2018-04-16T04:11:37.806Z,10.6
2018-04-16T04:12:27.611Z,10.6
2018-04-16T04:13:17.351Z,10.6
2018-04-16T04:14:07.987Z,10.6
2018-04-16T04:14:58.077Z,10.6
2018-04-16T04:15:48.112Z,10.6
2018-04-16T04:16:38.174Z,10.6
2018-04-16T04:17:28.251Z,10.6
2018-04-16T04:18:17.755Z,10.6
2018-04-16T04:19:08.355Z,10.6
2018-04-16T04:19:58.424Z,10.6
2018-04-16T04:20:48.499Z,10.6
2018-04-16T04:21:37.995Z,10.6
2018-04-16T04:22:28.622Z,10.6
2018-04-16T04:23:18.134Z,10.6
2018-04-16T04:24:08.748Z,10.6
2018-04-16T04:24:59.073Z,10.6
2018-04-16T04:25:48.861Z,10.6
2018-04-16T04:26:38.934Z,10.6
2018-04-16T04:27:28.418Z,10.6
2018-04-16T04:28:18.782Z,10.6
2018-04-16T04:29:09.121Z,10.6
2018-04-16T04:29:59.196Z,10.6
2018-04-16T04:30:49.250Z,10.6
2018-04-16T04:31:39.026Z,10.6
2018-04-16T04:32:29.351Z,10.6
2018-04-16T04:33:19.476Z,10.6
2018-04-16T04:34:09.493Z,10.6
2018-04-16T04:34:59.554Z,10.6
2018-04-16T04:35:49.615Z,10.7
2018-04-16T04:36:39.718Z,10.6
2018-04-16T04:37:29.799Z,10.7
2018-04-16T04:38:19.819Z,10.7
2018-04-16T04:39:09.910Z,10.7
2018-04-16T04:39:59.940Z,10.7
2018-04-16T04:40:50.027Z,10.8
2018-04-16T04:41:39.770Z,10.8
2018-04-16T04:42:30.113Z,10.8
2018-04-16T04:43:20.221Z,10.8
2018-04-16T04:44:10.302Z,10.8
2018-04-16T04:45:00.305Z,10.8
2018-04-16T04:45:50.380Z,10.8
2018-04-16T04:46:40.189Z,10.9
2018-04-16T04:47:30.249Z,10.9
2018-04-16T04:48:20.555Z,10.9
2018-04-16T04:49:10.622Z,10.9
2018-04-16T04:50:00.685Z,10.9
2018-04-16T04:50:50.483Z,10.9
2018-04-16T04:51:40.535Z,10.9
2018-04-16T04:52:30.875Z,11
2018-04-16T04:53:20.964Z,11
2018-04-16T04:54:11.007Z,11.1
2018-04-16T04:55:01.073Z,11.1
2018-04-16T04:55:51.142Z,11.1
2018-04-16T04:56:40.932Z,11.1
2018-04-16T04:57:30.781Z,11.1
2018-04-16T04:58:21.357Z,11.1
2018-04-16T04:59:10.837Z,11.1
2018-04-16T05:00:01.455Z,11.2
2018-04-16T05:00:51.234Z,11.2
2018-04-16T05:01:41.568Z,11.2
2018-04-16T05:02:31.057Z,11.3
2018-04-16T05:03:21.708Z,11.3
2018-04-16T05:04:11.778Z,11.3
2018-04-16T05:05:01.820Z,11.3
2018-04-16T05:05:51.602Z,11.4
2018-04-16T05:06:41.947Z,11.4
2018-04-16T05:07:32.014Z,11.4
2018-04-16T05:08:21.791Z,11.4
2018-04-16T05:09:12.123Z,11.5
2018-04-16T05:10:01.931Z,11.5
2018-04-16T05:10:52.006Z,11.6
2018-04-16T05:11:42.070Z,11.6
2018-04-16T05:12:32.409Z,11.6
2018-04-16T05:13:22.466Z,11.6
2018-04-16T05:14:12.239Z,11.7
2018-04-16T05:15:02.596Z,11.8
2018-04-16T05:15:52.648Z,11.8
2018-04-16T05:16:42.713Z,11.8
2018-04-16T05:17:32.757Z,11.9
2018-04-16T05:18:22.827Z,11.9
2018-04-16T05:19:12.606Z,12
2018-04-16T05:20:02.977Z,12.1
2018-04-16T05:20:53.023Z,12.1
2018-04-16T05:21:42.782Z,12.1
2018-04-16T05:22:32.863Z,12.3
2018-04-16T05:23:23.221Z,12.3
2018-04-16T05:24:12.987Z,12.4
2018-04-16T05:25:03.353Z,12.4
2018-04-16T05:25:53.393Z,12.5
2018-04-16T05:26:43.462Z,12.6
2018-04-16T05:27:33.537Z,12.7
2018-04-16T05:28:23.355Z,12.8
2018-04-16T05:29:13.653Z,12.8
2018-04-16T05:30:03.738Z,12.9
2018-04-16T05:30:53.753Z,13
2018-04-16T05:31:43.851Z,13.1
2018-04-16T05:32:34.219Z,13.2
2018-04-16T05:33:23.972Z,13.3
2018-04-16T05:34:14.019Z,13.3
2018-04-16T05:35:04.107Z,13.4
2018-04-16T05:35:53.876Z,13.5
2018-04-16T05:36:44.243Z,13.6
2018-04-16T05:37:34.274Z,13.7
2018-04-16T05:38:23.779Z,13.8
2018-04-16T05:39:14.127Z,13.9
2018-04-16T05:40:04.458Z,14
2018-04-16T05:40:53.939Z,14.1
2018-04-16T05:41:44.605Z,14.2
2018-04-16T05:42:34.862Z,14.3
2018-04-16T05:43:24.719Z,14.4
2018-04-16T05:44:14.767Z,14.6
2018-04-16T05:45:04.834Z,14.6
2018-04-16T05:45:54.606Z,14.8
2018-04-16T05:46:44.986Z,14.9
2018-04-16T05:47:35.051Z,14.9
2018-04-16T05:48:24.799Z,15.1
2018-04-16T05:49:15.295Z,15.2
2018-04-16T05:50:04.954Z,15.3
2018-04-16T05:50:55.290Z,15.4
2018-04-16T05:51:45.348Z,15.6
2018-04-16T05:52:35.402Z,15.7
2018-04-16T05:53:25.476Z,15.8
2018-04-16T05:54:15.265Z,15.9
2018-04-16T05:55:05.621Z,16
2018-04-16T05:55:55.663Z,16.1
2018-04-16T05:56:45.460Z,16.3
2018-04-16T05:57:35.499Z,16.4
2018-04-16T05:58:25.851Z,16.6
2018-04-16T05:59:15.636Z,16.6
2018-04-16T06:00:05.706Z,16.8
2018-04-16T06:00:56.048Z,16.9
2018-04-16T06:02:36.190Z,17.1
2018-04-16T06:03:26.217Z,17.3
2018-04-16T06:04:15.714Z,17.4
2018-04-16T06:05:05.791Z,17.6
2018-04-16T06:05:56.475Z,17.7
2018-04-16T06:06:46.477Z,17.8
2018-04-16T06:07:36.530Z,17.9
2018-04-16T06:08:26.045Z,18.1
2018-04-16T06:09:16.682Z,18.2
2018-04-16T06:10:06.482Z,18.3
2018-04-16T06:10:56.785Z,18.4
2018-04-16T06:11:46.588Z,18.6
2018-04-16T06:13:26.703Z,18.8
2018-04-16T06:14:16.772Z,18.9
2018-04-16T06:15:06.240Z,19
2018-04-16T06:15:57.167Z,19.2
2018-04-16T06:16:46.490Z,19.3
2018-04-16T06:17:37.331Z,19.4
2018-04-16T06:18:27.070Z,19.5
2018-04-16T06:19:17.173Z,19.6
2018-04-16T06:20:07.212Z,19.8
2018-04-16T06:20:57.544Z,19.9
2018-04-16T06:21:47.346Z,20
2018-04-16T06:22:37.671Z,20.1
2018-04-16T06:23:27.462Z,20.2
2018-04-16T06:24:17.512Z,20.3
2018-04-16T06:25:07.884Z,20.4
2018-04-16T06:25:57.929Z,20.5
2018-04-16T06:26:48.014Z,20.6
2018-04-16T06:27:37.756Z,20.8
2018-04-16T06:28:27.823Z,20.8
2018-04-16T06:29:17.889Z,20.9
2018-04-16T06:30:07.756Z,21.1
2018-04-16T06:30:58.296Z,21.2
2018-04-16T06:31:47.882Z,21.3
2018-04-16T06:32:38.143Z,21.4
2018-04-16T06:33:28.481Z,21.5
2018-04-16T06:34:18.588Z,21.6
2018-04-16T06:35:08.603Z,21.7
2018-04-16T06:35:58.377Z,21.8
2018-04-16T06:36:48.961Z,21.9
2018-04-16T06:37:38.780Z,21.9
2018-04-16T06:38:28.849Z,22.1
2018-04-16T06:39:18.354Z,22.1
2018-04-16T06:40:08.974Z,22.2
2018-04-16T06:40:59.034Z,22.3
2018-04-16T06:41:48.837Z,22.4
2018-04-16T06:42:39.171Z,22.5
2018-04-16T06:43:29.228Z,22.6
2018-04-16T06:44:19.031Z,22.6
2018-04-16T06:45:09.367Z,22.7
2018-04-16T06:45:59.460Z,22.8
2018-04-16T06:46:49.497Z,22.9
2018-04-16T06:47:39.552Z,22.9
2018-04-16T06:48:29.625Z,23
2018-04-16T06:49:19.397Z,23.1
2018-04-16T06:50:09.445Z,23.1
2018-04-16T06:50:59.798Z,23.1
2018-04-16T06:51:49.302Z,23.2
2018-04-16T06:52:39.480Z,23.3
2018-04-16T06:53:29.980Z,23.3
2018-04-16T06:54:19.752Z,23.3
2018-04-16T06:55:10.112Z,23.3
2018-04-16T06:55:59.899Z,23.4
2018-04-16T06:56:50.229Z,23.4
2018-04-16T06:57:40.305Z,23.4
2018-04-16T06:58:30.088Z,23.5
2018-04-16T06:59:20.478Z,23.6
2018-04-16T07:00:10.544Z,23.6
2018-04-16T07:01:00.619Z,23.6
2018-04-16T07:01:49.949Z,23.6
2018-04-16T07:02:40.186Z,23.6
2018-04-16T07:03:30.772Z,23.6
2018-04-16T07:04:20.553Z,23.7
2018-04-16T07:05:10.886Z,23.7
2018-04-16T07:06:00.653Z,23.6
2018-04-16T07:06:51.001Z,23.6
2018-04-16T07:07:40.845Z,23.7
2018-04-16T07:08:30.887Z,23.8
2018-04-16T07:09:20.627Z,23.9
2018-04-16T07:10:11.555Z,23.9
2018-04-16T07:11:01.364Z,24.1
2018-04-16T07:11:51.379Z,24.1
2018-04-16T07:12:41.422Z,24.3
2018-04-16T07:13:31.477Z,24.3
2018-04-16T07:14:21.562Z,24.4
2018-04-16T07:15:11.351Z,24.5
2018-04-16T07:16:01.980Z,24.6
2018-04-16T07:16:51.456Z,24.8
2018-04-16T07:17:41.310Z,24.9
2018-04-16T07:18:31.311Z,24.9
2018-04-16T07:19:21.391Z,25.1
2018-04-16T07:20:11.438Z,25.2
2018-04-16T07:21:02.077Z,25.3
2018-04-16T07:21:51.848Z,25.4
2018-04-16T07:22:42.194Z,25.4
2018-04-16T07:23:31.983Z,25.6
2018-04-16T07:24:22.128Z,25.6
2018-04-16T07:25:12.085Z,25.8
2018-04-16T07:26:02.446Z,25.9
2018-04-16T07:26:52.219Z,26.1
2018-04-16T07:27:42.083Z,26.2
2018-04-16T07:28:32.341Z,26.3
2018-04-16T07:29:21.924Z,26.4
2018-04-16T07:30:12.762Z,26.6
2018-04-16T07:31:02.252Z,26.8
2018-04-16T07:31:52.869Z,27
2018-04-16T07:32:42.961Z,27.2
2018-04-16T07:33:32.506Z,27.4
2018-04-16T07:34:22.800Z,27.6
2018-04-16T07:35:13.118Z,27.8
2018-04-16T07:36:52.971Z,27.9
2018-04-16T07:37:43.322Z,28
2018-04-16T07:38:33.360Z,28.1
2018-04-16T07:39:23.140Z,28.1
2018-04-16T07:40:13.523Z,28.2
2018-04-16T07:41:02.999Z,28.3
2018-04-16T07:41:53.362Z,28.3
2018-04-16T07:42:43.426Z,28.3
2018-04-16T07:43:33.748Z,28.2
2018-04-16T07:44:23.254Z,28.1
2018-04-16T07:45:13.604Z,28.1
2018-04-16T07:46:03.925Z,28.1
2018-04-16T07:46:53.451Z,28.1
2018-04-16T07:47:43.775Z,28
2018-04-16T07:48:34.130Z,27.9
2018-04-16T07:50:13.984Z,27.8
2018-04-16T07:51:04.333Z,27.8
2018-04-16T07:51:54.135Z,27.7
2018-04-16T07:52:44.174Z,27.7
2018-04-16T07:53:34.063Z,27.6
2018-04-16T07:54:24.022Z,27.6
2018-04-16T07:55:14.622Z,27.6
2018-04-16T07:56:04.698Z,27.6
2018-04-16T07:56:54.471Z,27.6
2018-04-16T07:57:44.843Z,27.6
2018-04-16T07:58:34.899Z,27.7
2018-04-16T07:59:24.951Z,27.7
2018-04-16T08:00:14.742Z,27.8
2018-04-16T08:04:25.309Z,27.9
2018-04-16T08:05:15.394Z,27.9
2018-04-16T08:06:05.451Z,28
2018-04-16T08:06:55.222Z,28
2018-04-16T08:07:45.571Z,28.2
2018-04-16T08:08:35.671Z,28.3
2018-04-16T08:09:25.694Z,28.4
2018-04-16T08:10:15.471Z,28.4
2018-04-16T08:11:05.548Z,28.6
2018-04-16T08:11:55.916Z,28.6
2018-04-16T08:12:45.373Z,28.9
2018-04-16T08:13:35.456Z,29
2018-04-16T08:14:25.813Z,29.3
2018-04-16T08:15:16.131Z,29.4
2018-04-16T08:16:06.432Z,29.6
2018-04-16T08:16:56.271Z,29.8
2018-04-16T08:17:45.775Z,29.9
2018-04-16T08:18:35.842Z,30
2018-04-16T08:19:26.518Z,30.1
2018-04-16T08:20:16.508Z,30.3
2018-04-16T08:21:06.582Z,30.3
2018-04-16T08:21:56.633Z,30.4
2018-04-16T08:22:46.705Z,30.5
2018-04-16T08:23:36.764Z,30.6
2018-04-16T08:24:26.848Z,30.6
2018-04-16T08:25:16.883Z,30.8
2018-04-16T08:26:06.965Z,30.9
2018-04-16T08:26:57.020Z,31
2018-04-16T08:27:47.091Z,31.1
2018-04-16T08:28:36.877Z,31.2
2018-04-16T08:29:26.936Z,31.3
2018-04-16T08:30:17.271Z,31.3
2018-04-16T08:31:07.331Z,31.4
2018-04-16T08:31:57.410Z,31.5
2018-04-16T08:32:47.452Z,31.6
2018-04-16T08:33:37.535Z,31.6
2018-04-16T08:34:27.301Z,31.8
2018-04-16T08:35:17.645Z,31.8
2018-04-16T08:36:07.282Z,31.9
2018-04-16T08:36:57.767Z,31.9
2018-04-16T08:37:47.827Z,32.1
2018-04-16T08:38:37.637Z,32.2
2018-04-16T08:39:27.964Z,32.3
2018-04-16T08:40:17.759Z,32.4
2018-04-16T08:41:08.097Z,32.4
2018-04-16T08:41:57.871Z,32.5
2018-04-16T08:42:48.205Z,32.5
2018-04-16T08:43:38.280Z,32.5
2018-04-16T08:44:28.344Z,32.6
2018-04-16T08:45:17.829Z,32.6
2018-04-16T08:46:08.169Z,32.5
2018-04-16T08:46:58.243Z,32.5
2018-04-16T08:47:48.304Z,32.5
2018-04-16T08:48:38.363Z,32.5
2018-04-16T08:49:28.425Z,32.5
2018-04-16T08:50:18.766Z,32.4
2018-04-16T08:51:08.566Z,32.4
2018-04-16T08:51:58.890Z,32.4
2018-04-16T08:52:48.961Z,32.3
2018-04-16T08:53:39.018Z,32.3
2018-04-16T08:54:29.091Z,32.3
2018-04-16T08:55:19.149Z,32.2
2018-04-16T08:56:09.208Z,32.2
2018-04-16T08:56:59.269Z,32.3
2018-04-16T08:57:49.068Z,32.2
2018-04-16T08:58:39.400Z,32.1
2018-04-16T08:59:29.465Z,32.1
2018-04-16T09:00:19.520Z,32
2018-04-16T09:01:09.587Z,31.9
2018-04-16T09:01:59.660Z,31.9
2018-04-16T09:02:49.714Z,31.9
2018-04-16T09:03:39.795Z,31.8
2018-04-16T09:04:29.848Z,31.8
2018-04-16T09:05:19.915Z,31.7
2018-04-16T09:06:10.000Z,31.6
2018-04-16T09:07:00.019Z,31.6
2018-04-16T09:07:49.825Z,31.5
2018-04-16T09:08:40.222Z,31.4
2018-04-16T09:09:30.239Z,31.3
2018-04-16T09:10:20.284Z,31.3
2018-04-16T09:11:10.352Z,31.2
2018-04-16T09:12:00.397Z,31.1
2018-04-16T09:12:50.188Z,31.1
2018-04-16T09:13:40.522Z,31.1
2018-04-16T09:14:30.023Z,31
2018-04-16T09:15:20.395Z,30.9
2018-04-16T09:16:10.465Z,30.9
2018-04-16T09:17:00.789Z,30.9
2018-04-16T09:17:50.840Z,30.9
2018-04-16T09:18:40.928Z,31
2018-04-16T09:19:30.978Z,30.9
2018-04-16T09:20:21.044Z,30.9
2018-04-16T09:21:11.125Z,31
2018-04-16T09:22:00.610Z,31
2018-04-16T09:22:50.948Z,31.1
2018-04-16T09:23:41.313Z,31.1
2018-04-16T09:24:31.075Z,31.3
2018-04-16T09:25:21.440Z,31.4
2018-04-16T09:26:11.188Z,31.5
2018-04-16T09:27:01.537Z,31.6
2018-04-16T09:27:50.850Z,31.8
2018-04-16T09:28:41.720Z,32.1
2018-04-16T09:29:31.478Z,32.2
2018-04-16T09:30:21.511Z,32.4
2018-04-16T09:31:11.580Z,32.4
2018-04-16T09:32:01.637Z,32.6
2018-04-16T09:32:51.698Z,32.8
2018-04-16T09:33:42.043Z,32.8
2018-04-16T09:34:31.838Z,32.8
2018-04-16T09:35:21.618Z,32.8
2018-04-16T09:36:12.252Z,32.9
2018-04-16T09:37:01.745Z,33
2018-04-16T09:37:52.416Z,33.2
2018-04-16T09:38:42.430Z,33.3
2018-04-16T09:39:32.307Z,33.3
2018-04-16T09:40:22.557Z,33.3
2018-04-16T09:41:12.605Z,33.3
2018-04-16T09:42:02.683Z,33.3
2018-04-16T09:42:52.452Z,33.3
2018-04-16T09:43:42.236Z,33.3
2018-04-16T09:44:32.298Z,33.4
2018-04-16T09:45:22.631Z,33.3
2018-04-16T09:46:12.762Z,33.3
2018-04-16T09:47:03.052Z,33.3
2018-04-16T09:47:53.115Z,33.3
2018-04-16T09:48:42.637Z,33.2
2018-04-16T09:49:32.956Z,33.1
2018-04-16T09:50:23.414Z,33.1
2018-04-16T09:51:13.104Z,33
2018-04-16T09:52:03.161Z,32.9
2018-04-16T09:52:53.220Z,32.8
2018-04-16T09:53:43.584Z,32.8
2018-04-16T09:54:33.336Z,32.7
2018-04-16T09:55:23.391Z,32.6
2018-04-16T09:56:13.484Z,32.5
2018-04-16T09:57:03.529Z,32.3
2018-04-16T09:57:53.311Z,32.3
2018-04-16T09:58:43.648Z,32.1
2018-04-16T09:59:33.412Z,31.9
2018-04-16T10:00:24.122Z,31.8
2018-04-16T10:01:14.111Z,31.7
2018-04-16T10:02:03.922Z,31.5
2018-04-16T10:02:54.259Z,31.4
2018-04-16T10:03:44.309Z,31.3
2018-04-16T10:04:34.361Z,31.1
2018-04-16T10:05:24.158Z,30.9
2018-04-16T10:06:14.211Z,30.8
2018-04-16T10:07:03.708Z,30.7
2018-04-16T10:07:54.359Z,30.6
2018-04-16T10:08:44.666Z,30.5
2018-04-16T10:09:34.735Z,30.4
2018-04-16T10:10:24.808Z,30.3
2018-04-16T10:11:14.878Z,30.1
2018-04-16T10:12:04.923Z,30
2018-04-16T10:12:54.985Z,29.9
2018-04-16T10:13:45.101Z,29.8
2018-04-16T10:14:35.121Z,29.6
2018-04-16T10:15:24.346Z,29.5
2018-04-16T10:16:15.240Z,29.4
2018-04-16T10:17:05.321Z,29.3
2018-04-16T10:17:55.094Z,29.1
2018-04-16T10:18:45.161Z,29
2018-04-16T10:19:35.500Z,28.9
2018-04-16T10:20:25.575Z,28.8
2018-04-16T10:21:15.620Z,28.6
2018-04-16T10:22:05.409Z,28.5
2018-04-16T10:22:55.472Z,28.4
2018-04-16T10:23:44.975Z,28.3
2018-04-16T10:24:35.877Z,28.2
2018-04-16T10:25:25.645Z,28
2018-04-16T10:26:15.441Z,27.9
2018-04-16T10:27:05.777Z,27.8
2018-04-16T10:27:56.148Z,27.6
2018-04-16T10:28:45.625Z,27.6
2018-04-16T10:29:35.688Z,27.4
2018-04-16T10:30:26.322Z,27.3
2018-04-16T10:31:16.101Z,27.3
2018-04-16T10:32:06.422Z,27.1
2018-04-16T10:32:56.530Z,27
2018-04-16T10:33:46.294Z,26.9
2018-04-16T10:34:36.077Z,26.8
2018-04-16T10:35:26.694Z,26.8
2018-04-16T10:36:16.457Z,26.6
2018-04-16T10:37:06.812Z,26.5
2018-04-16T10:37:56.316Z,26.4
2018-04-16T10:38:46.676Z,26.4
2018-04-16T10:39:37.016Z,26.2
2018-04-16T10:40:27.093Z,26.1
2018-04-16T10:41:17.145Z,26.1
2018-04-16T10:42:06.902Z,26
2018-04-16T10:42:56.697Z,25.9
2018-04-16T10:43:47.038Z,25.8
2018-04-16T10:44:36.818Z,25.8
2018-04-16T10:45:27.441Z,25.7
2018-04-16T10:46:17.497Z,25.6
2018-04-16T10:47:07.759Z,25.6
2018-04-16T10:47:57.555Z,25.5
2018-04-16T10:48:48.191Z,25.4
2018-04-16T10:49:38.293Z,25.4
2018-04-16T10:50:28.340Z,25.4
2018-04-16T10:51:18.366Z,25.3
2018-04-16T10:52:08.408Z,25.3
2018-04-16T10:52:58.483Z,25.2
2018-04-16T10:53:48.569Z,25.1
2018-04-16T10:54:38.333Z,25.1
2018-04-16T10:55:28.695Z,25.1
2018-04-16T10:56:18.453Z,25
2018-04-16T10:57:08.565Z,24.9
2018-04-16T10:57:58.869Z,24.9
2018-04-16T10:58:48.928Z,24.9
2018-04-16T10:59:38.967Z,24.8
2018-04-16T11:00:29.070Z,24.8
2018-04-16T11:01:19.118Z,24.8
2018-04-16T11:02:08.897Z,24.7
2018-04-16T11:02:58.677Z,24.6
2018-04-16T11:03:49.029Z,24.6
2018-04-16T11:04:39.396Z,24.5
2018-04-16T11:05:28.575Z,24.5
2018-04-16T11:06:19.624Z,24.4
2018-04-16T11:07:09.269Z,24.4
2018-04-16T11:07:58.775Z,24.3
2018-04-16T11:08:49.405Z,24.3
2018-04-16T11:09:39.482Z,24.2
2018-04-16T11:10:29.225Z,24.2
2018-04-16T11:11:19.580Z,24.1
2018-04-16T11:12:09.641Z,24.1
2018-04-16T11:12:59.982Z,24.1
2018-04-16T11:13:49.772Z,24
2018-04-16T11:14:39.845Z,24
2018-04-16T11:15:29.886Z,24